Austin Straubel International Airport
KGRB : rendu visible

Aérodrome :











RETROUVEZ-NOUS SUR...

 
LOGIN :

S'inscrire | Disclaimer

   EN    FR    IT 

 









Légende :    VFR   VFR Marginal   IFR   IFR Intensif   IFR Très Intensif
Visi : 
Plafond : 
>= 8 km
>= 3000ft
5 à 8 km
1000 à 3000 ft
1500m à 5 km
500 à 1000 ft
800 à 1500m
200 à 500 ft
< 800m
< 200 ft
Symboles :   Orages  Brouillard  Fortes neiges  Fortes précipitations  Vent > 20 kt






- Altitude de l'aérodrome : 695 ft
- Code IATA : GRB


KGRB - Austin Straubel International

DERNIER METAR :
  • 191153Z 22004KT 10SM OVC015 00/M03 A2975 RMK AO2 SLP083 T00001028 10006 20000 53006

METARs EXPIRÉS :
  • 191053Z AUTO 00000KT 10SM OVC016 00/M02 A2974 RMK AO2 SLP081 T00001022
  • 190953Z AUTO 00000KT 10SM OVC016 00/M03 A2974 RMK AO2 SLP077 T00001028

TAF KGRB
Valide du 19 à 12h jusqu'au 20 à 12h UTC


191135Z 1912/2012 VRB03KT P6SM OVC015
FM191600 VRB04KT P6SM OVC025
FM200500 26004KT 5SM BR OVC015
FM200900 VRB03KT 3SM BR BKN009



MET'MAP, la Météo Aéronautique d'un coup d'oeil ! - Copyright ORBIFLY Décembre 2007 - Disclaimer

ORBIFLY MET'MAP TEAM :

Programmation & Développement : Alexandra Zaïnal
Conception & Développement : Baudouin d'Aumeries
Co-Programmation & Développement : Marc-Olivier Méhu
Soutien technique & logistique : Manuel Goepfert

Contact : metmap@orbifly.com




SOURCES & CREDITS :

   NOAA       Earth
Advisory